sensor_id;sensor_type;location;lat;lon;timestamp;pressure;altitude;pressure_sealevel;temperature;humidity
72558;BME280;60583;50.094;8.748;2023-06-14T00:00:10;100101.69;;;19.69;41.76
72558;BME280;60583;50.094;8.748;2023-06-14T00:02:39;100099.50;;;19.66;41.76
72558;BME280;60583;50.094;8.748;2023-06-14T00:05:05;100100.31;;;19.67;42.02
72558;BME280;60583;50.094;8.748;2023-06-14T00:07:36;100100.59;;;19.60;42.20
72558;BME280;60583;50.094;8.748;2023-06-14T00:10:03;100103.84;;;19.67;42.06
72558;BME280;60583;50.094;8.748;2023-06-14T00:12:29;100073.72;;;19.44;42.27
72558;BME280;60583;50.094;8.748;2023-06-14T00:14:55;100085.56;;;19.33;42.46
72558;BME280;60583;50.094;8.748;2023-06-14T00:17:20;100089.28;;;19.27;42.66
72558;BME280;60583;50.094;8.748;2023-06-14T00:19:46;100101.59;;;19.49;42.37
72558;BME280;60583;50.094;8.748;2023-06-14T00:22:12;100092.56;;;19.34;42.73
72558;BME280;60583;50.094;8.748;2023-06-14T00:24:37;100092.22;;;19.15;42.71
72558;BME280;60583;50.094;8.748;2023-06-14T00:27:03;100101.75;;;19.28;42.89
72558;BME280;60583;50.094;8.748;2023-06-14T00:29:28;100116.63;;;19.30;43.03
72558;BME280;60583;50.094;8.748;2023-06-14T00:31:54;100100.53;;;19.08;43.36
72558;BME280;60583;50.094;8.748;2023-06-14T00:34:19;100097.25;;;19.01;43.78
72558;BME280;60583;50.094;8.748;2023-06-14T00:36:45;100103.44;;;18.97;43.98
72558;BME280;60583;50.094;8.748;2023-06-14T00:39:10;100113.72;;;18.95;44.05
72558;BME280;60583;50.094;8.748;2023-06-14T00:41:35;100101.19;;;18.84;44.08
72558;BME280;60583;50.094;8.748;2023-06-14T00:44:01;100111.19;;;18.83;44.04
72558;BME280;60583;50.094;8.748;2023-06-14T00:46:26;100110.66;;;18.86;44.06
72558;BME280;60583;50.094;8.748;2023-06-14T00:48:52;100092.84;;;18.85;44.04
72558;BME280;60583;50.094;8.748;2023-06-14T00:51:17;100078.16;;;18.76;43.92
72558;BME280;60583;50.094;8.748;2023-06-14T00:53:44;100103.09;;;18.88;44.17
72558;BME280;60583;50.094;8.748;2023-06-14T00:56:13;100108.56;;;18.93;44.33
72558;BME280;60583;50.094;8.748;2023-06-14T00:58:40;100101.47;;;18.82;44.20
72558;BME280;60583;50.094;8.748;2023-06-14T01:01:06;100107.41;;;18.84;44.23
72558;BME280;60583;50.094;8.748;2023-06-14T01:03:31;100110.97;;;18.90;44.25
72558;BME280;60583;50.094;8.748;2023-06-14T01:06:23;100100.88;;;18.75;44.75
72558;BME280;60583;50.094;8.748;2023-06-14T01:09:06;100118.28;;;18.58;45.13
72558;BME280;60583;50.094;8.748;2023-06-14T01:11:43;100120.22;;;18.62;45.01
72558;BME280;60583;50.094;8.748;2023-06-14T01:14:14;100130.50;;;18.65;45.24
72558;BME280;60583;50.094;8.748;2023-06-14T01:16:39;100119.91;;;18.59;45.09
72558;BME280;60583;50.094;8.748;2023-06-14T01:19:07;100128.31;;;18.62;45.15
72558;BME280;60583;50.094;8.748;2023-06-14T01:21:38;100113.22;;;18.39;45.37
72558;BME280;60583;50.094;8.748;2023-06-14T01:24:08;100127.09;;;18.48;45.56
72558;BME280;60583;50.094;8.748;2023-06-14T01:26:34;100117.44;;;18.30;45.66
72558;BME280;60583;50.094;8.748;2023-06-14T01:29:03;100125.81;;;18.29;45.96
72558;BME280;60583;50.094;8.748;2023-06-14T01:31:29;100125.81;;;18.29;45.80
72558;BME280;60583;50.094;8.748;2023-06-14T01:33:55;100122.59;;;18.32;45.75
72558;BME280;60583;50.094;8.748;2023-06-14T01:36:21;100115.63;;;18.09;46.58
72558;BME280;60583;50.094;8.748;2023-06-14T01:38:48;100119.31;;;18.25;46.06
72558;BME280;60583;50.094;8.748;2023-06-14T01:41:16;100099.19;;;18.11;46.00
72558;BME280;60583;50.094;8.748;2023-06-14T01:43:42;100114.19;;;18.28;45.75
72558;BME280;60583;50.094;8.748;2023-06-14T01:46:08;100122.91;;;18.35;45.71
72558;BME280;60583;50.094;8.748;2023-06-14T01:48:34;100127.69;;;18.28;45.83
72558;BME280;60583;50.094;8.748;2023-06-14T01:51:00;100110.06;;;18.21;45.82
72558;BME280;60583;50.094;8.748;2023-06-14T01:53:25;100105.66;;;18.10;46.06
72558;BME280;60583;50.094;8.748;2023-06-14T01:55:51;100112.72;;;18.16;46.10
72558;BME280;60583;50.094;8.748;2023-06-14T01:58:19;100128.91;;;18.16;46.08
72558;BME280;60583;50.094;8.748;2023-06-14T02:00:45;100127.34;;;18.20;45.93
72558;BME280;60583;50.094;8.748;2023-06-14T02:03:11;100120.22;;;18.09;45.96
72558;BME280;60583;50.094;8.748;2023-06-14T02:05:37;100113.50;;;18.11;45.89
72558;BME280;60583;50.094;8.748;2023-06-14T02:08:04;100132.66;;;18.10;45.55
72558;BME280;60583;50.094;8.748;2023-06-14T02:10:30;100061.09;;;17.80;45.24
72558;BME280;60583;50.094;8.748;2023-06-14T02:12:55;100122.59;;;18.05;45.79
72558;BME280;60583;50.094;8.748;2023-06-14T02:15:21;100120.81;;;18.16;45.59
72558;BME280;60583;50.094;8.748;2023-06-14T02:17:47;100105.03;;;18.03;45.81
72558;BME280;60583;50.094;8.748;2023-06-14T02:20:14;100119.03;;;18.00;46.23
72558;BME280;60583;50.094;8.748;2023-06-14T02:22:39;100114.84;;;17.87;46.25
72558;BME280;60583;50.094;8.748;2023-06-14T02:25:05;100127.94;;;18.00;46.45
72558;BME280;60583;50.094;8.748;2023-06-14T02:27:31;100106.06;;;17.97;46.43
72558;BME280;60583;50.094;8.748;2023-06-14T02:29:57;100128.25;;;18.04;46.43
72558;BME280;60583;50.094;8.748;2023-06-14T02:32:22;100137.34;;;17.98;46.75
72558;BME280;60583;50.094;8.748;2023-06-14T02:34:48;100126.59;;;18.03;46.32
72558;BME280;60583;50.094;8.748;2023-06-14T02:37:17;100135.97;;;17.95;46.31
72558;BME280;60583;50.094;8.748;2023-06-14T02:39:43;100115.84;;;17.81;46.63
72558;BME280;60583;50.094;8.748;2023-06-14T02:42:08;100129.09;;;17.61;47.27
72558;BME280;60583;50.094;8.748;2023-06-14T02:44:34;100131.53;;;17.62;46.87
72558;BME280;60583;50.094;8.748;2023-06-14T02:47:00;100128.91;;;17.67;46.80
72558;BME280;60583;50.094;8.748;2023-06-14T02:49:26;100116.94;;;17.58;47.05
72558;BME280;60583;50.094;8.748;2023-06-14T02:51:51;100136.06;;;17.78;47.07
72558;BME280;60583;50.094;8.748;2023-06-14T02:54:17;100104.88;;;17.66;46.84
72558;BME280;60583;50.094;8.748;2023-06-14T02:56:43;100127.34;;;17.71;47.29
72558;BME280;60583;50.094;8.748;2023-06-14T02:59:09;100139.69;;;17.67;47.46
72558;BME280;60583;50.094;8.748;2023-06-14T03:01:34;100146.59;;;17.58;47.70
72558;BME280;60583;50.094;8.748;2023-06-14T03:04:01;100127.00;;;17.46;47.86
72558;BME280;60583;50.094;8.748;2023-06-14T03:06:31;100141.69;;;17.55;47.83
72558;BME280;60583;50.094;8.748;2023-06-14T03:08:57;100150.34;;;17.57;48.29
72558;BME280;60583;50.094;8.748;2023-06-14T03:11:26;100148.06;;;17.49;47.92
72558;BME280;60583;50.094;8.748;2023-06-14T03:13:52;100128.34;;;17.27;48.56
72558;BME280;60583;50.094;8.748;2023-06-14T03:16:18;100153.97;;;17.30;49.07
72558;BME280;60583;50.094;8.748;2023-06-14T03:18:51;100156.44;;;17.31;48.81
72558;BME280;60583;50.094;8.748;2023-06-14T03:21:17;100167.22;;;17.31;48.78
72558;BME280;60583;50.094;8.748;2023-06-14T03:23:43;100172.13;;;17.34;48.88
72558;BME280;60583;50.094;8.748;2023-06-14T03:26:09;100168.75;;;17.27;49.21
72558;BME280;60583;50.094;8.748;2023-06-14T03:28:38;100173.09;;;17.28;49.24
72558;BME280;60583;50.094;8.748;2023-06-14T03:31:03;100169.22;;;17.19;48.90
72558;BME280;60583;50.094;8.748;2023-06-14T03:33:29;100186.00;;;17.09;49.52
72558;BME280;60583;50.094;8.748;2023-06-14T03:35:54;100182.75;;;17.07;49.59
72558;BME280;60583;50.094;8.748;2023-06-14T03:38:21;100174.28;;;16.99;49.79
72558;BME280;60583;50.094;8.748;2023-06-14T03:40:47;100170.84;;;16.87;50.77
72558;BME280;60583;50.094;8.748;2023-06-14T03:43:12;100200.31;;;17.10;50.26
72558;BME280;60583;50.094;8.748;2023-06-14T03:45:37;100190.78;;;17.19;50.48
72558;BME280;60583;50.094;8.748;2023-06-14T03:48:03;100198.59;;;17.20;50.10
72558;BME280;60583;50.094;8.748;2023-06-14T03:50:31;100203.66;;;16.84;50.81
72558;BME280;60583;50.094;8.748;2023-06-14T03:52:57;100187.66;;;16.94;50.66
72558;BME280;60583;50.094;8.748;2023-06-14T03:55:23;100167.41;;;16.75;51.06
72558;BME280;60583;50.094;8.748;2023-06-14T03:57:51;100200.97;;;17.00;51.13
72558;BME280;60583;50.094;8.748;2023-06-14T04:00:17;100213.69;;;17.05;51.10
72558;BME280;60583;50.094;8.748;2023-06-14T04:02:43;100205.28;;;16.85;51.28
72558;BME280;60583;50.094;8.748;2023-06-14T04:05:09;100216.41;;;16.88;51.82
72558;BME280;60583;50.094;8.748;2023-06-14T04:07:35;100227.56;;;16.97;51.80
72558;BME280;60583;50.094;8.748;2023-06-14T04:10:06;100211.56;;;16.74;52.24
72558;BME280;60583;50.094;8.748;2023-06-14T04:12:32;100210.19;;;16.88;52.11
72558;BME280;60583;50.094;8.748;2023-06-14T04:14:57;100218.34;;;16.93;51.77
72558;BME280;60583;50.094;8.748;2023-06-14T04:17:22;100213.44;;;16.90;51.69
72558;BME280;60583;50.094;8.748;2023-06-14T04:19:48;100227.75;;;17.07;50.73
72558;BME280;60583;50.094;8.748;2023-06-14T04:22:13;100223.03;;;17.14;50.33
72558;BME280;60583;50.094;8.748;2023-06-14T04:24:39;100239.66;;;17.28;50.34
72558;BME280;60583;50.094;8.748;2023-06-14T04:27:04;100236.22;;;17.32;50.33
72558;BME280;60583;50.094;8.748;2023-06-14T04:29:29;100238.44;;;17.35;50.07
72558;BME280;60583;50.094;8.748;2023-06-14T04:31:56;100228.81;;;17.22;49.79
72558;BME280;60583;50.094;8.748;2023-06-14T04:34:28;100244.53;;;17.47;49.95
72558;BME280;60583;50.094;8.748;2023-06-14T04:36:59;100235.97;;;17.50;49.88
72558;BME280;60583;50.094;8.748;2023-06-14T04:39:27;100246.75;;;17.50;49.56
72558;BME280;60583;50.094;8.748;2023-06-14T04:41:53;100248.81;;;17.60;50.09
72558;BME280;60583;50.094;8.748;2023-06-14T04:44:22;100251.41;;;17.71;49.83
72558;BME280;60583;50.094;8.748;2023-06-14T04:46:57;100242.66;;;17.81;49.02
72558;BME280;60583;50.094;8.748;2023-06-14T04:49:24;100248.88;;;17.81;49.16
72558;BME280;60583;50.094;8.748;2023-06-14T04:51:50;100238.50;;;17.73;49.47
72558;BME280;60583;50.094;8.748;2023-06-14T04:54:23;100227.44;;;17.75;49.44
72558;BME280;60583;50.094;8.748;2023-06-14T04:56:51;100251.28;;;18.00;50.03
72558;BME280;60583;50.094;8.748;2023-06-14T04:59:16;100238.34;;;18.02;49.45
72558;BME280;60583;50.094;8.748;2023-06-14T05:01:43;100260.69;;;18.19;49.23
72558;BME280;60583;50.094;8.748;2023-06-14T05:04:16;100265.31;;;18.02;49.35
72558;BME280;60583;50.094;8.748;2023-06-14T05:06:43;100261.06;;;18.06;49.31
72558;BME280;60583;50.094;8.748;2023-06-14T05:09:13;100264.97;;;18.15;49.31
72558;BME280;60583;50.094;8.748;2023-06-14T05:11:40;100266.69;;;18.26;49.09
72558;BME280;60583;50.094;8.748;2023-06-14T05:14:10;100244.56;;;18.02;48.95
72558;BME280;60583;50.094;8.748;2023-06-14T05:16:35;100237.16;;;18.14;48.64
72558;BME280;60583;50.094;8.748;2023-06-14T05:19:02;100238.88;;;18.25;48.64
72558;BME280;60583;50.094;8.748;2023-06-14T05:21:29;100254.41;;;18.35;48.56
72558;BME280;60583;50.094;8.748;2023-06-14T05:23:55;100254.78;;;18.22;49.19
72558;BME280;60583;50.094;8.748;2023-06-14T05:26:21;100242.97;;;18.28;49.31
72558;BME280;60583;50.094;8.748;2023-06-14T05:28:48;100252.66;;;18.24;49.02
72558;BME280;60583;50.094;8.748;2023-06-14T05:31:15;100262.31;;;18.41;49.00
72558;BME280;60583;50.094;8.748;2023-06-14T05:33:40;100254.16;;;18.36;48.93
72558;BME280;60583;50.094;8.748;2023-06-14T05:36:05;100268.91;;;18.07;49.69
72558;BME280;60583;50.094;8.748;2023-06-14T05:38:31;100273.25;;;18.30;49.59
72558;BME280;60583;50.094;8.748;2023-06-14T05:40:56;100271.94;;;18.54;48.68
72558;BME280;60583;50.094;8.748;2023-06-14T05:43:22;100267.03;;;18.29;48.87
72558;BME280;60583;50.094;8.748;2023-06-14T05:45:47;100280.38;;;18.41;49.19
72558;BME280;60583;50.094;8.748;2023-06-14T05:48:12;100258.94;;;18.51;49.13
72558;BME280;60583;50.094;8.748;2023-06-14T05:50:38;100283.81;;;18.80;48.74
72558;BME280;60583;50.094;8.748;2023-06-14T05:53:03;100282.72;;;18.54;49.26
72558;BME280;60583;50.094;8.748;2023-06-14T05:55:28;100291.06;;;18.74;49.24
72558;BME280;60583;50.094;8.748;2023-06-14T05:57:54;100284.06;;;18.78;48.18
72558;BME280;60583;50.094;8.748;2023-06-14T06:00:20;100290.06;;;18.80;48.77
72558;BME280;60583;50.094;8.748;2023-06-14T06:02:45;100284.03;;;19.00;48.99
72558;BME280;60583;50.094;8.748;2023-06-14T06:05:13;100300.66;;;19.19;49.04
72558;BME280;60583;50.094;8.748;2023-06-14T06:07:39;100285.22;;;19.41;48.37
72558;BME280;60583;50.094;8.748;2023-06-14T06:10:10;100299.47;;;19.63;47.61
72558;BME280;60583;50.094;8.748;2023-06-14T06:12:36;100292.97;;;19.64;47.62
72558;BME280;60583;50.094;8.748;2023-06-14T06:15:02;100302.47;;;19.71;47.42
72558;BME280;60583;50.094;8.748;2023-06-14T06:17:28;100298.91;;;19.61;47.29
72558;BME280;60583;50.094;8.748;2023-06-14T06:19:54;100296.84;;;19.78;46.81
72558;BME280;60583;50.094;8.748;2023-06-14T06:22:19;100306.16;;;19.97;47.39
72558;BME280;60583;50.094;8.748;2023-06-14T06:24:45;100300.75;;;19.97;48.48
72558;BME280;60583;50.094;8.748;2023-06-14T06:27:10;100299.66;;;19.93;47.60
72558;BME280;60583;50.094;8.748;2023-06-14T06:29:37;100298.44;;;20.16;47.87
72558;BME280;60583;50.094;8.748;2023-06-14T06:32:03;100300.84;;;20.12;47.44
72558;BME280;60583;50.094;8.748;2023-06-14T06:34:29;100290.94;;;20.28;46.89
72558;BME280;60583;50.094;8.748;2023-06-14T06:36:54;100318.59;;;20.40;46.50
72558;BME280;60583;50.094;8.748;2023-06-14T06:39:20;100310.81;;;20.54;46.29
72558;BME280;60583;50.094;8.748;2023-06-14T06:41:46;100326.03;;;20.70;46.64
72558;BME280;60583;50.094;8.748;2023-06-14T06:44:11;100306.47;;;20.58;45.66
72558;BME280;60583;50.094;8.748;2023-06-14T06:46:38;100313.59;;;20.74;46.23
72558;BME280;60583;50.094;8.748;2023-06-14T06:49:06;100309.75;;;20.70;44.61
72558;BME280;60583;50.094;8.748;2023-06-14T06:51:32;100316.50;;;20.57;45.66
72558;BME280;60583;50.094;8.748;2023-06-14T06:53:58;100332.84;;;20.20;45.44
72558;BME280;60583;50.094;8.748;2023-06-14T06:56:24;100310.25;;;20.47;45.74
72558;BME280;60583;50.094;8.748;2023-06-14T06:58:50;100326.06;;;20.80;43.98
72558;BME280;60583;50.094;8.748;2023-06-14T07:01:16;100318.41;;;20.67;44.02
72558;BME280;60583;50.094;8.748;2023-06-14T07:03:42;100323.84;;;20.62;43.00
72558;BME280;60583;50.094;8.748;2023-06-14T07:06:07;100304.09;;;20.76;42.90
72558;BME280;60583;50.094;8.748;2023-06-14T07:08:33;100325.91;;;21.07;42.47
72558;BME280;60583;50.094;8.748;2023-06-14T07:10:58;100333.69;;;20.98;41.93
72558;BME280;60583;50.094;8.748;2023-06-14T07:13:23;100316.88;;;20.86;42.37
72558;BME280;60583;50.094;8.748;2023-06-14T07:15:49;100329.16;;;21.19;41.34
72558;BME280;60583;50.094;8.748;2023-06-14T07:18:14;100327.53;;;21.48;41.51
72558;BME280;60583;50.094;8.748;2023-06-14T07:20:40;100330.75;;;21.15;41.15
72558;BME280;60583;50.094;8.748;2023-06-14T07:23:05;100297.34;;;20.89;41.75
72558;BME280;60583;50.094;8.748;2023-06-14T07:25:31;100334.81;;;21.12;41.62
72558;BME280;60583;50.094;8.748;2023-06-14T07:27:56;100311.69;;;20.84;42.50
72558;BME280;60583;50.094;8.748;2023-06-14T07:30:22;100325.09;;;21.31;42.95
72558;BME280;60583;50.094;8.748;2023-06-14T07:32:52;100330.78;;;21.50;41.92
72558;BME280;60583;50.094;8.748;2023-06-14T07:35:18;100326.19;;;21.60;41.82
72558;BME280;60583;50.094;8.748;2023-06-14T07:37:43;100304.47;;;21.50;40.97
72558;BME280;60583;50.094;8.748;2023-06-14T07:40:09;100324.00;;;21.93;41.07
72558;BME280;60583;50.094;8.748;2023-06-14T07:42:35;100325.34;;;21.95;41.54
72558;BME280;60583;50.094;8.748;2023-06-14T07:45:05;100322.66;;;21.50;41.55
72558;BME280;60583;50.094;8.748;2023-06-14T07:47:31;100298.78;;;21.62;41.92
72558;BME280;60583;50.094;8.748;2023-06-14T07:49:56;100310.94;;;22.05;41.72
72558;BME280;60583;50.094;8.748;2023-06-14T07:52:21;100313.00;;;22.33;41.51
72558;BME280;60583;50.094;8.748;2023-06-14T07:54:47;100301.84;;;22.40;40.10
72558;BME280;60583;50.094;8.748;2023-06-14T07:57:12;100308.03;;;22.60;39.52
72558;BME280;60583;50.094;8.748;2023-06-14T07:59:38;100313.13;;;21.98;40.07
72558;BME280;60583;50.094;8.748;2023-06-14T08:02:04;100330.72;;;22.20;40.37
72558;BME280;60583;50.094;8.748;2023-06-14T08:04:29;100314.19;;;22.07;39.89
72558;BME280;60583;50.094;8.748;2023-06-14T08:06:55;100324.53;;;22.05;39.80
72558;BME280;60583;50.094;8.748;2023-06-14T08:09:20;100315.19;;;22.31;39.50
72558;BME280;60583;50.094;8.748;2023-06-14T08:11:45;100332.00;;;22.38;38.74
72558;BME280;60583;50.094;8.748;2023-06-14T08:14:11;100321.06;;;22.53;38.55
72558;BME280;60583;50.094;8.748;2023-06-14T08:16:36;100320.50;;;22.61;38.90
72558;BME280;60583;50.094;8.748;2023-06-14T08:19:02;100319.63;;;22.81;39.20
72558;BME280;60583;50.094;8.748;2023-06-14T08:21:28;100336.09;;;22.41;38.66
72558;BME280;60583;50.094;8.748;2023-06-14T08:23:55;100325.63;;;21.99;40.37
72558;BME280;60583;50.094;8.748;2023-06-14T08:26:20;100323.03;;;22.48;40.42
72558;BME280;60583;50.094;8.748;2023-06-14T08:28:46;100317.78;;;21.87;39.83
72558;BME280;60583;50.094;8.748;2023-06-14T08:31:11;100336.22;;;21.65;41.36
72558;BME280;60583;50.094;8.748;2023-06-14T08:33:37;100332.06;;;22.28;40.02
72558;BME280;60583;50.094;8.748;2023-06-14T08:36:04;100333.69;;;22.24;39.70
72558;BME280;60583;50.094;8.748;2023-06-14T08:38:30;100321.63;;;22.65;40.14
72558;BME280;60583;50.094;8.748;2023-06-14T08:40:57;100327.91;;;22.46;38.89
72558;BME280;60583;50.094;8.748;2023-06-14T08:43:22;100330.41;;;22.37;39.55
72558;BME280;60583;50.094;8.748;2023-06-14T08:45:51;100320.44;;;22.81;39.19
72558;BME280;60583;50.094;8.748;2023-06-14T08:48:19;100315.16;;;23.00;38.42
72558;BME280;60583;50.094;8.748;2023-06-14T08:50:46;100328.81;;;22.90;37.80
72558;BME280;60583;50.094;8.748;2023-06-14T08:53:14;100306.38;;;22.59;37.03
72558;BME280;60583;50.094;8.748;2023-06-14T08:55:41;100318.44;;;22.38;38.03
72558;BME280;60583;50.094;8.748;2023-06-14T08:58:08;100332.78;;;22.54;37.63
72558;BME280;60583;50.094;8.748;2023-06-14T09:00:34;100339.31;;;22.63;38.11
72558;BME280;60583;50.094;8.748;2023-06-14T09:03:02;100348.44;;;21.88;39.08
72558;BME280;60583;50.094;8.748;2023-06-14T09:05:28;100332.94;;;22.08;39.04
72558;BME280;60583;50.094;8.748;2023-06-14T09:07:54;100335.81;;;22.42;39.59
72558;BME280;60583;50.094;8.748;2023-06-14T09:10:20;100330.88;;;22.54;38.43
72558;BME280;60583;50.094;8.748;2023-06-14T09:12:46;100319.50;;;23.01;39.07
72558;BME280;60583;50.094;8.748;2023-06-14T09:15:12;100333.06;;;23.50;37.32
72558;BME280;60583;50.094;8.748;2023-06-14T09:17:39;100333.22;;;23.25;37.90
72558;BME280;60583;50.094;8.748;2023-06-14T09:20:06;100328.97;;;22.65;38.06
72558;BME280;60583;50.094;8.748;2023-06-14T09:22:33;100321.84;;;23.18;37.69
72558;BME280;60583;50.094;8.748;2023-06-14T09:24:59;100317.63;;;23.40;38.13
72558;BME280;60583;50.094;8.748;2023-06-14T09:27:28;100332.00;;;23.46;37.48
72558;BME280;60583;50.094;8.748;2023-06-14T09:29:54;100324.88;;;23.11;37.29
72558;BME280;60583;50.094;8.748;2023-06-14T09:32:21;100335.66;;;23.65;36.48
72558;BME280;60583;50.094;8.748;2023-06-14T09:34:47;100336.28;;;24.15;36.54
72558;BME280;60583;50.094;8.748;2023-06-14T09:37:12;100334.94;;;24.36;36.04
72558;BME280;60583;50.094;8.748;2023-06-14T09:39:50;100341.66;;;24.20;36.44
72558;BME280;60583;50.094;8.748;2023-06-14T09:42:16;100342.94;;;24.51;35.53
72558;BME280;60583;50.094;8.748;2023-06-14T09:44:48;100323.66;;;24.66;33.56
72558;BME280;60583;50.094;8.748;2023-06-14T09:47:17;100338.09;;;24.90;33.74
72558;BME280;60583;50.094;8.748;2023-06-14T09:49:43;100338.25;;;24.09;34.49
72558;BME280;60583;50.094;8.748;2023-06-14T09:52:17;100356.06;;;24.49;34.69
72558;BME280;60583;50.094;8.748;2023-06-14T09:54:44;100340.28;;;24.69;34.96
72558;BME280;60583;50.094;8.748;2023-06-14T09:57:21;100339.97;;;24.71;32.98
72558;BME280;60583;50.094;8.748;2023-06-14T09:59:48;100335.81;;;24.79;33.36
72558;BME280;60583;50.094;8.748;2023-06-14T10:02:26;100339.19;;;25.26;33.78
72558;BME280;60583;50.094;8.748;2023-06-14T10:05:03;100317.06;;;25.47;34.29
72558;BME280;60583;50.094;8.748;2023-06-14T10:07:32;100314.22;;;25.84;33.59
72558;BME280;60583;50.094;8.748;2023-06-14T10:10:01;100314.84;;;25.49;33.49
72558;BME280;60583;50.094;8.748;2023-06-14T10:12:26;100319.38;;;25.02;33.68
72558;BME280;60583;50.094;8.748;2023-06-14T10:14:53;100337.94;;;25.19;33.64
72558;BME280;60583;50.094;8.748;2023-06-14T10:17:53;100333.59;;;24.99;34.27
72558;BME280;60583;50.094;8.748;2023-06-14T10:20:44;100332.56;;;24.95;34.81
72558;BME280;60583;50.094;8.748;2023-06-14T10:23:22;100326.38;;;25.08;33.87
72558;BME280;60583;50.094;8.748;2023-06-14T10:25:50;100321.81;;;24.61;33.51
72558;BME280;60583;50.094;8.748;2023-06-14T10:28:22;100339.19;;;24.47;33.26
72558;BME280;60583;50.094;8.748;2023-06-14T10:31:11;100336.81;;;24.83;33.52
72558;BME280;60583;50.094;8.748;2023-06-14T10:33:56;100328.53;;;25.62;33.56
72558;BME280;60583;50.094;8.748;2023-06-14T10:36:28;100312.88;;;24.98;34.58
72558;BME280;60583;50.094;8.748;2023-06-14T10:39:17;100334.03;;;25.06;33.19
72558;BME280;60583;50.094;8.748;2023-06-14T10:41:52;100339.03;;;25.87;32.20
72558;BME280;60583;50.094;8.748;2023-06-14T10:46:48;100328.09;;;25.87;31.02
72558;BME280;60583;50.094;8.748;2023-06-14T10:49:17;100332.38;;;26.07;31.02
72558;BME280;60583;50.094;8.748;2023-06-14T10:51:49;100333.56;;;25.87;31.36
72558;BME280;60583;50.094;8.748;2023-06-14T10:54:20;100315.94;;;25.80;31.62
72558;BME280;60583;50.094;8.748;2023-06-14T10:56:55;100328.91;;;26.02;30.51
72558;BME280;60583;50.094;8.748;2023-06-14T10:59:20;100336.34;;;25.69;31.48
72558;BME280;60583;50.094;8.748;2023-06-14T11:02:20;100329.44;;;25.58;30.91
72558;BME280;60583;50.094;8.748;2023-06-14T11:04:52;100331.28;;;24.69;32.28
72558;BME280;60583;50.094;8.748;2023-06-14T11:07:28;100315.53;;;24.61;33.27
72558;BME280;60583;50.094;8.748;2023-06-14T11:13:07;100319.59;;;24.87;32.81
72558;BME280;60583;50.094;8.748;2023-06-14T11:15:34;100331.69;;;25.00;33.18
72558;BME280;60583;50.094;8.748;2023-06-14T11:18:01;100326.38;;;25.08;33.71
72558;BME280;60583;50.094;8.748;2023-06-14T11:20:30;100315.09;;;25.15;33.00
72558;BME280;60583;50.094;8.748;2023-06-14T11:22:56;100320.41;;;25.25;32.68
72558;BME280;60583;50.094;8.748;2023-06-14T11:25:21;100320.59;;;25.47;32.29
72558;BME280;60583;50.094;8.748;2023-06-14T11:27:49;100308.00;;;26.24;31.25
72558;BME280;60583;50.094;8.748;2023-06-14T11:30:14;100300.22;;;25.85;31.35
72558;BME280;60583;50.094;8.748;2023-06-14T11:32:40;100306.28;;;25.36;31.48
72558;BME280;60583;50.094;8.748;2023-06-14T11:35:06;100306.66;;;25.11;31.25
72558;BME280;60583;50.094;8.748;2023-06-14T11:37:32;100287.63;;;24.88;31.50
72558;BME280;60583;50.094;8.748;2023-06-14T11:40:04;100310.34;;;24.83;32.65
72558;BME280;60583;50.094;8.748;2023-06-14T11:42:34;100334.38;;;24.39;33.28
72558;BME280;60583;50.094;8.748;2023-06-14T11:45:00;100337.50;;;24.27;32.50
72558;BME280;60583;50.094;8.748;2023-06-14T11:47:33;100332.22;;;24.36;31.83
72558;BME280;60583;50.094;8.748;2023-06-14T11:49:59;100314.94;;;25.06;31.38
72558;BME280;60583;50.094;8.748;2023-06-14T11:52:25;100324.72;;;25.77;30.35
72558;BME280;60583;50.094;8.748;2023-06-14T11:54:51;100323.22;;;26.30;29.91
72558;BME280;60583;50.094;8.748;2023-06-14T11:57:20;100326.38;;;25.91;29.82
72558;BME280;60583;50.094;8.748;2023-06-14T11:59:46;100336.69;;;25.49;30.58
72558;BME280;60583;50.094;8.748;2023-06-14T12:02:18;100339.44;;;24.69;31.37
72558;BME280;60583;50.094;8.748;2023-06-14T12:04:47;100321.34;;;25.15;31.89
72558;BME280;60583;50.094;8.748;2023-06-14T12:07:17;100329.16;;;25.03;30.33
72558;BME280;60583;50.094;8.748;2023-06-14T12:12:16;100338.00;;;25.51;31.05
72558;BME280;60583;50.094;8.748;2023-06-14T12:14:42;100342.13;;;24.74;31.78
72558;BME280;60583;50.094;8.748;2023-06-14T12:17:07;100349.44;;;24.55;31.35
72558;BME280;60583;50.094;8.748;2023-06-14T12:19:33;100355.44;;;24.99;31.38
72558;BME280;60583;50.094;8.748;2023-06-14T12:22:06;100340.69;;;25.19;30.71
72558;BME280;60583;50.094;8.748;2023-06-14T12:24:34;100328.72;;;24.96;30.55
72558;BME280;60583;50.094;8.748;2023-06-14T12:26:59;100347.31;;;25.82;29.95
72558;BME280;60583;50.094;8.748;2023-06-14T12:29:25;100337.66;;;25.71;30.29
72558;BME280;60583;50.094;8.748;2023-06-14T12:31:51;100324.81;;;25.21;30.86
72558;BME280;60583;50.094;8.748;2023-06-14T12:34:19;100299.50;;;25.15;31.28
72558;BME280;60583;50.094;8.748;2023-06-14T12:36:44;100316.28;;;25.41;31.67
72558;BME280;60583;50.094;8.748;2023-06-14T12:39:11;100321.19;;;25.25;31.56
72558;BME280;60583;50.094;8.748;2023-06-14T12:41:36;100319.28;;;24.65;30.01
72558;BME280;60583;50.094;8.748;2023-06-14T12:44:02;100323.34;;;24.91;30.07
72558;BME280;60583;50.094;8.748;2023-06-14T12:46:30;100323.16;;;24.64;30.68
72558;BME280;60583;50.094;8.748;2023-06-14T12:48:56;100333.09;;;24.31;30.60
72558;BME280;60583;50.094;8.748;2023-06-14T12:51:22;100332.94;;;24.65;30.46
72558;BME280;60583;50.094;8.748;2023-06-14T12:53:47;100315.81;;;24.83;30.67
72558;BME280;60583;50.094;8.748;2023-06-14T12:56:14;100320.03;;;24.94;30.84
72558;BME280;60583;50.094;8.748;2023-06-14T12:58:40;100324.88;;;24.79;31.21